Rocky Mountain Metropolitan Airport
KBJC : now visible

Airfield :











YOU CAN JOIN US ON...

 
LOGIN :

Register | Disclaimer

   EN    FR    IT 

 









Legend :    VFR   Marginal VFR   IFR   Intensive IFR   Very Intensive IFR
Visi :
Ceiling :
>= 8 km
>= 3000ft
5 to 8 km
1000 to 3000 ft
1500m to 5 km
500 to 1000 ft
800 to 1500m
200 to 500 ft
< 800m
< 200 ft
Symbols :   Thunderstorms  Fog  Heavy snow  Heavy precipitations  Wind > 20 kt






- Airport Elevation : 5673 ft


KBJC - Rocky Mountain Metropolitan

CURRENT METAR :
  • 191447Z 35011KT 10SM SCT012 BKN017 OVC026 M05/M09 A3021 RMK VIS LWR W-N

EXPIRED METARs :
  • 191347Z 35011KT 15SM OVC017 M04/M09 A3018
  • 191254Z AUTO 33006KT 10SM OVC019 M05/M08 A3017 RMK AO2
  • 191247Z 32006KT 25SM OVC019 M05/M09 A3017
  • 191230Z AUTO 33009KT 10SM BKN021 M05/M09 A3015 RMK AO2

TAF KBJC
Valid from the 19 at 15:00 until the 20 at 12:00 UTC


191508Z 1915/2012 35008KT P6SM SCT008 OVC015
TEMPO 1917/1919 6SM -SN BKN008
FM191900 02010KT 6SM -SN SCT006 OVC012
TEMPO 1919/1921 3SM -SN OVC008
FM192100 02010KT 3SM -SN BR OVC008
FM200000 10008KT 1 1/2SM -SN BR SCT004 OVC008
FM200900 15007KT P6SM SCT012 BKN025
FM201100 25007KT P6SM FEW020



MET'MAP, your aeronautical weather chart ! - Copyright ORBIFLY December 2007 - Disclaimer

ORBIFLY MET'MAP TEAM :

Programming & Development : Alexandra Zaïnal
Concept & original design : Baudouin d'Aumeries
Assistance for programming : Marc-Olivier Méhu
Technical & hardware support : Manuel Goepfert

Contact : metmap@orbifly.com




SOURCES & CREDITS :

   NOAA       Earth
Advisory